Time;durP1;ratioP1;P1;durP2;ratioP2;P2;SDS_P1;SDS_P2;PMS_P1;PMS_P2;Temp;Humidity;BMP_temperature;BMP_pressure;BME280_temperature;BME280_humidity;BME280_pressure;Samples;Min_cycle;Max_cycle;Signal;HPM_P1;HPM_P2
2021/11/10 00:00:53;;;;;;;29.45;16.80;;;;;;;;;;5094706;28;20024;-64
2021/11/10 00:03:19;;;;;;;30.17;15.23;;;;;;;;;;5094681;28;20031;-64
2021/11/10 00:05:46;;;;;;;27.73;14.60;;;;;;;;;;5094647;28;20382;-64
2021/11/10 00:08:12;;;;;;;30.48;14.88;;;;;;;;;;5094047;28;20533;-64
2021/11/10 00:10:38;;;;;;;24.10;15.15;;;;;;;;;;5094522;28;20085;-64
2021/11/10 00:13:19;;;;;;;25.73;15.32;;;;;;;;;;5094533;28;20020;-64
2021/11/10 00:15:46;;;;;;;27.00;15.10;;;;;;;;;;5092931;28;20386;-64
2021/11/10 00:18:12;;;;;;;29.05;15.13;;;;;;;;;;5094332;28;20065;-64
2021/11/10 00:20:38;;;;;;;26.02;15.38;;;;;;;;;;5094401;28;20020;-64
2021/11/10 00:23:04;;;;;;;28.35;15.48;;;;;;;;;;5094342;28;20355;-64
2021/11/10 00:25:30;;;;;;;27.83;16.42;;;;;;;;;;5093072;28;20469;-64
2021/11/10 00:27:56;;;;;;;32.97;16.20;;;;;;;;;;5094271;28;20020;-64
2021/11/10 00:30:22;;;;;;;25.27;15.30;;;;;;;;;;5094217;28;20024;-64
2021/11/10 00:32:48;;;;;;;31.80;16.27;;;;;;;;;;5094142;28;20024;-64
2021/11/10 00:35:14;;;;;;;34.55;16.35;;;;;;;;;;5094417;28;20028;-64
2021/11/10 00:37:40;;;;;;;28.45;15.35;;;;;;;;;;5094035;28;20054;-64
2021/11/10 00:40:06;;;;;;;26.95;15.32;;;;;;;;;;5094097;28;20027;-65
2021/11/10 00:42:32;;;;;;;24.15;14.65;;;;;;;;;;5094080;28;20028;-63
2021/11/10 00:44:58;;;;;;;30.50;15.98;;;;;;;;;;5093998;28;20020;-64
2021/11/10 00:47:24;;;;;;;24.23;14.32;;;;;;;;;;5094043;28;20385;-64
2021/11/10 00:49:50;;;;;;;28.80;15.27;;;;;;;;;;5093941;28;20024;-64
2021/11/10 00:52:15;;;;;;;34.60;17.25;;;;;;;;;;5092945;28;20462;-64
2021/11/10 00:54:41;;;;;;;26.98;15.70;;;;;;;;;;5093920;28;20556;-64
2021/11/10 00:57:07;;;;;;;24.40;14.30;;;;;;;;;;5093882;28;20035;-64
2021/11/10 00:59:33;;;;;;;26.58;15.80;;;;;;;;;;5093432;28;20080;-63
2021/11/10 01:01:59;;;;;;;23.25;13.52;;;;;;;;;;5093857;28;20048;-64
2021/11/10 01:04:25;;;;;;;25.92;14.90;;;;;;;;;;5093852;28;20413;-65
2021/11/10 01:06:51;;;;;;;36.55;16.55;;;;;;;;;;5093791;28;20420;-64
2021/11/10 01:09:18;;;;;;;31.23;16.38;;;;;;;;;;5093793;28;20100;-65
2021/11/10 01:11:46;;;;;;;34.30;16.30;;;;;;;;;;5093814;28;20078;-64
2021/11/10 01:14:13;;;;;;;40.20;17.77;;;;;;;;;;5093753;28;20400;-64
2021/11/10 01:16:39;;;;;;;33.50;16.52;;;;;;;;;;5093022;28;20020;-65
2021/11/10 01:19:05;;;;;;;26.02;16.05;;;;;;;;;;5092181;28;20028;-64
2021/11/10 01:21:31;;;;;;;26.35;15.00;;;;;;;;;;5079984;28;20077;-64
2021/11/10 01:23:59;;;;;;;29.17;15.40;;;;;;;;;;5097789;28;20051;-64
2021/11/10 01:26:25;;;;;;;29.55;15.48;;;;;;;;;;5096185;28;20024;-64
2021/11/10 01:28:51;;;;;;;27.70;15.63;;;;;;;;;;5097687;28;20024;-64
2021/11/10 01:31:16;;;;;;;29.52;15.48;;;;;;;;;;5097637;28;20366;-65
2021/11/10 01:33:42;;;;;;;25.52;14.55;;;;;;;;;;5097643;28;20354;-65
2021/11/10 01:36:08;;;;;;;27.73;14.73;;;;;;;;;;5097521;28;20517;-65
2021/11/10 01:38:34;;;;;;;31.35;15.30;;;;;;;;;;5097151;28;20028;-64
2021/11/10 01:41:00;;;;;;;27.75;14.85;;;;;;;;;;5097428;28;20476;-64
2021/11/10 01:43:27;;;;;;;25.08;14.35;;;;;;;;;;5097407;28;20036;-64
2021/11/10 01:45:55;;;;;;;25.08;14.98;;;;;;;;;;5097390;28;20016;-63
2021/11/10 01:48:21;;;;;;;23.98;14.65;;;;;;;;;;5097547;28;20028;-63
2021/11/10 01:50:47;;;;;;;27.95;13.80;;;;;;;;;;5097248;28;20021;-64
2021/11/10 01:53:13;;;;;;;24.98;14.68;;;;;;;;;;5097267;28;20038;-65
2021/11/10 01:55:39;;;;;;;30.20;15.15;;;;;;;;;;5097193;28;20024;-64
2021/11/10 01:58:06;;;;;;;27.27;15.30;;;;;;;;;;5096718;28;20048;-65
2021/11/10 02:00:32;;;;;;;30.08;16.65;;;;;;;;;;5097076;28;20020;-64
2021/11/10 02:02:59;;;;;;;28.70;15.30;;;;;;;;;;5097024;28;20031;-65
2021/11/10 02:05:25;;;;;;;32.42;16.20;;;;;;;;;;5096982;28;20465;-65
2021/11/10 02:07:51;;;;;;;27.17;14.95;;;;;;;;;;5096938;28;20115;-65
2021/11/10 02:10:19;;;;;;;30.67;14.98;;;;;;;;;;5095334;28;20032;-64
2021/11/10 02:12:45;;;;;;;30.08;15.25;;;;;;;;;;5096822;28;20027;-65
2021/11/10 02:15:13;;;;;;;27.67;16.40;;;;;;;;;;5096769;28;20573;-65
2021/11/10 02:17:39;;;;;;;29.42;15.30;;;;;;;;;;5096651;28;20031;-65
2021/11/10 02:20:07;;;;;;;33.05;16.35;;;;;;;;;;5096713;28;20028;-65
2021/11/10 02:22:33;;;;;;;29.77;16.60;;;;;;;;;;5096648;28;20052;-65
2021/11/10 02:25:01;;;;;;;26.17;14.40;;;;;;;;;;5096609;28;20016;-65
2021/11/10 02:27:33;;;;;;;33.90;17.95;;;;;;;;;;5096531;28;20021;-65
2021/11/10 02:29:59;;;;;;;36.73;18.80;;;;;;;;;;5096157;28;20020;-63
2021/11/10 02:32:25;;;;;;;35.10;18.08;;;;;;;;;;5096359;28;20024;-65
2021/11/10 02:34:51;;;;;;;33.10;17.63;;;;;;;;;;5096410;28;20020;-64
2021/11/10 02:37:18;;;;;;;30.75;16.90;;;;;;;;;;5096357;28;20036;-65
2021/11/10 02:39:45;;;;;;;32.67;16.67;;;;;;;;;;5096271;28;20453;-65
2021/11/10 02:42:11;;;;;;;34.75;16.63;;;;;;;;;;5095063;28;20066;-65
2021/11/10 02:44:37;;;;;;;31.27;15.68;;;;;;;;;;5096220;28;20036;-65
2021/11/10 02:47:04;;;;;;;25.92;15.35;;;;;;;;;;5096207;28;20093;-65
2021/11/10 02:49:30;;;;;;;28.35;14.93;;;;;;;;;;5096166;28;20024;-65
2021/11/10 02:52:05;;;;;;;29.55;15.63;;;;;;;;;;5096101;28;20381;-64
2021/11/10 02:54:33;;;;;;;33.75;15.38;;;;;;;;;;5096048;28;20359;-64
2021/11/10 02:57:00;;;;;;;30.35;14.75;;;;;;;;;;5096273;28;20024;-65
2021/11/10 02:59:26;;;;;;;28.25;14.43;;;;;;;;;;5095594;28;20619;-64
2021/11/10 03:01:53;;;;;;;26.13;14.77;;;;;;;;;;5095989;28;20077;-65
2021/11/10 03:04:23;;;;;;;29.65;14.82;;;;;;;;;;5095854;28;20556;-64
2021/11/10 03:06:50;;;;;;;23.38;14.15;;;;;;;;;;5095830;28;20100;-65
2021/11/10 03:09:17;;;;;;;27.77;14.15;;;;;;;;;;5095791;28;20016;-65
2021/11/10 03:11:43;;;;;;;29.02;14.98;;;;;;;;;;5095720;28;20024;-65
2021/11/10 03:14:09;;;;;;;23.83;13.75;;;;;;;;;;5094131;28;20115;-65
2021/11/10 03:16:35;;;;;;;27.73;14.95;;;;;;;;;;5095645;28;20028;-65
2021/11/10 03:19:01;;;;;;;23.73;14.20;;;;;;;;;;5095500;28;20028;-65
2021/11/10 03:21:27;;;;;;;34.05;16.10;;;;;;;;;;5095549;28;20366;-65
2021/11/10 03:23:53;;;;;;;34.03;15.05;;;;;;;;;;5095501;28;20085;-63
2021/11/10 03:26:21;;;;;;;29.38;15.65;;;;;;;;;;5095429;28;20027;-65
2021/11/10 03:28:47;;;;;;;30.77;15.43;;;;;;;;;;5095685;28;20028;-65
2021/11/10 03:31:13;;;;;;;28.35;15.40;;;;;;;;;;5095361;28;20051;-65
2021/11/10 03:33:39;;;;;;;31.58;16.25;;;;;;;;;;5095275;28;20055;-65
2021/11/10 03:36:05;;;;;;;27.35;15.75;;;;;;;;;;5095245;28;20381;-65
2021/11/10 03:38:31;;;;;;;27.17;14.88;;;;;;;;;;5095110;28;20108;-65
2021/11/10 03:40:57;;;;;;;30.27;16.55;;;;;;;;;;5095116;28;20020;-65
2021/11/10 03:43:23;;;;;;;25.67;14.00;;;;;;;;;;5094261;28;20028;-65
2021/11/10 03:45:50;;;;;;;29.52;14.45;;;;;;;;;;5095071;28;20069;-65
2021/11/10 03:48:16;;;;;;;26.30;14.38;;;;;;;;;;5093814;28;20521;-65
2021/11/10 03:50:42;;;;;;;28.33;14.68;;;;;;;;;;5094958;28;20059;-65
2021/11/10 03:53:08;;;;;;;32.85;14.98;;;;;;;;;;5095198;28;20016;-65
2021/11/10 03:55:36;;;;;;;30.02;14.55;;;;;;;;;;5094719;28;20032;-65
2021/11/10 03:58:02;;;;;;;31.70;14.68;;;;;;;;;;5093053;28;20443;-65
2021/11/10 04:00:28;;;;;;;25.63;15.07;;;;;;;;;;5094793;28;20032;-65
2021/11/10 04:02:54;;;;;;;27.88;14.82;;;;;;;;;;5094703;28;20024;-65
2021/11/10 04:05:20;;;;;;;29.95;14.48;;;;;;;;;;5094683;28;20024;-65
2021/11/10 04:07:46;;;;;;;23.63;14.02;;;;;;;;;;5094681;28;20093;-65
2021/11/10 04:10:12;;;;;;;32.05;14.18;;;;;;;;;;5094630;28;20027;-64
2021/11/10 04:12:38;;;;;;;24.75;13.30;;;;;;;;;;5094279;28;20072;-65
2021/11/10 04:15:04;;;;;;;22.38;13.73;;;;;;;;;;5094554;28;20111;-65
2021/11/10 04:17:30;;;;;;;25.48;14.52;;;;;;;;;;5092936;28;20028;-63
2021/11/10 04:19:56;;;;;;;27.38;13.52;;;;;;;;;;5092916;28;20032;-63
2021/11/10 04:22:23;;;;;;;30.90;14.48;;;;;;;;;;5094402;28;20393;-63
2021/11/10 04:24:50;;;;;;;26.88;13.93;;;;;;;;;;5094352;28;20031;-64
2021/11/10 04:27:18;;;;;;;22.60;13.02;;;;;;;;;;5094332;28;20103;-64
2021/11/10 04:29:45;;;;;;;23.45;14.27;;;;;;;;;;5094331;28;20099;-64
2021/11/10 04:32:11;;;;;;;26.05;13.55;;;;;;;;;;5094512;28;20016;-64
2021/11/10 04:34:37;;;;;;;24.10;14.10;;;;;;;;;;5094171;28;20551;-64
2021/11/10 04:37:04;;;;;;;25.60;13.35;;;;;;;;;;5094447;28;20091;-64
2021/11/10 04:39:30;;;;;;;22.77;13.27;;;;;;;;;;5092914;28;20542;-65
2021/11/10 04:41:56;;;;;;;19.85;12.50;;;;;;;;;;5094089;28;20525;-65
2021/11/10 04:44:23;;;;;;;22.60;13.80;;;;;;;;;;5094018;28;20012;-64
2021/11/10 04:46:50;;;;;;;18.90;12.00;;;;;;;;;;5094025;28;20016;-64
2021/11/10 04:49:17;;;;;;;26.88;13.52;;;;;;;;;;5094040;28;20020;-64
2021/11/10 04:51:44;;;;;;;21.42;12.73;;;;;;;;;;5094011;28;20506;-63
2021/11/10 04:54:13;;;;;;;26.75;12.75;;;;;;;;;;5093788;28;20016;-64
2021/11/10 04:56:39;;;;;;;22.90;12.82;;;;;;;;;;5093978;28;20020;-64
2021/11/10 04:59:06;;;;;;;21.10;12.00;;;;;;;;;;5093472;28;20127;-64
2021/11/10 05:01:37;;;;;;;20.15;12.52;;;;;;;;;;5093889;28;20446;-63
2021/11/10 05:04:04;;;;;;;24.73;13.50;;;;;;;;;;5093862;28;20043;-63
2021/11/10 05:06:30;;;;;;;25.23;13.98;;;;;;;;;;5093834;28;20099;-65
2021/11/10 05:08:57;;;;;;;22.48;12.82;;;;;;;;;;5092310;28;20465;-65
2021/11/10 05:11:23;;;;;;;23.17;13.48;;;;;;;;;;5093825;28;20021;-63
2021/11/10 05:13:49;;;;;;;27.15;13.98;;;;;;;;;;5093764;28;20031;-63
2021/11/10 05:16:15;;;;;;;27.50;13.32;;;;;;;;;;5092477;28;20427;-64
2021/11/10 05:18:41;;;;;;;30.10;13.07;;;;;;;;;;5093651;28;20085;-65
2021/11/10 05:21:07;;;;;;;30.38;14.20;;;;;;;;;;5093688;28;20077;-65
2021/11/10 05:23:33;;;;;;;24.60;13.43;;;;;;;;;;5093702;28;20020;-65
2021/11/10 05:25:59;;;;;;;25.80;14.23;;;;;;;;;;5093674;28;20024;-65
2021/11/10 05:28:25;;;;;;;25.88;14.70;;;;;;;;;;5075340;28;20030;-65
2021/11/10 05:30:51;;;;;;;29.60;16.27;;;;;;;;;;5093615;28;20103;-64
2021/11/10 05:33:18;;;;;;;35.17;16.13;;;;;;;;;;5093568;28;20036;-65
2021/11/10 05:35:44;;;;;;;30.58;15.95;;;;;;;;;;5093610;28;20020;-65
2021/11/10 05:38:10;;;;;;;34.13;16.25;;;;;;;;;;5092759;28;20046;-65
2021/11/10 05:40:37;;;;;;;31.00;15.63;;;;;;;;;;5093503;28;20454;-65
2021/11/10 05:43:03;;;;;;;28.17;14.73;;;;;;;;;;5093528;28;20112;-65
2021/11/10 05:45:30;;;;;;;26.70;14.35;;;;;;;;;;5093776;28;20104;-65
2021/11/10 05:47:56;;;;;;;26.98;13.85;;;;;;;;;;5091927;28;20020;-65
2021/11/10 05:50:22;;;;;;;28.10;15.55;;;;;;;;;;5091918;28;20056;-64
2021/11/10 05:52:48;;;;;;;29.20;15.13;;;;;;;;;;5093424;28;20035;-65
2021/11/10 05:55:15;;;;;;;26.23;16.05;;;;;;;;;;5093394;28;20049;-64
2021/11/10 05:57:42;;;;;;;30.98;17.95;;;;;;;;;;5093075;28;20482;-65
2021/11/10 06:00:09;;;;;;;36.10;17.38;;;;;;;;;;5093304;28;20095;-65
2021/11/10 06:02:35;;;;;;;30.80;17.08;;;;;;;;;;5093342;28;20028;-65
2021/11/10 06:05:01;;;;;;;33.72;17.55;;;;;;;;;;5093281;28;20025;-65
2021/11/10 06:07:27;;;;;;;27.05;16.38;;;;;;;;;;5097240;28;20419;-65
2021/11/10 06:09:53;;;;;;;29.17;15.27;;;;;;;;;;5096922;28;20111;-65
2021/11/10 06:12:19;;;;;;;27.55;15.75;;;;;;;;;;5095569;28;20056;-64
2021/11/10 06:14:45;;;;;;;27.40;16.10;;;;;;;;;;5096874;28;20028;-65
2021/11/10 06:17:11;;;;;;;33.95;16.90;;;;;;;;;;5096785;28;20036;-65
2021/11/10 06:19:37;;;;;;;31.05;17.08;;;;;;;;;;5096669;28;20115;-65
2021/11/10 06:22:03;;;;;;;35.13;18.65;;;;;;;;;;5095684;28;20024;-65
2021/11/10 06:24:30;;;;;;;31.35;16.30;;;;;;;;;;5096649;28;20017;-65
2021/11/10 06:26:56;;;;;;;34.58;16.98;;;;;;;;;;5096609;28;20016;-64
2021/11/10 06:29:23;;;;;;;31.60;17.77;;;;;;;;;;5096516;28;20035;-64
2021/11/10 06:31:49;;;;;;;40.53;20.25;;;;;;;;;;5096413;28;20389;-65
2021/11/10 06:34:15;;;;;;;34.70;17.98;;;;;;;;;;5096427;28;20032;-64
2021/11/10 06:36:41;;;;;;;32.70;16.83;;;;;;;;;;5096386;28;20028;-65
2021/11/10 06:39:07;;;;;;;36.17;18.00;;;;;;;;;;5096607;28;20126;-64
2021/11/10 06:41:33;;;;;;;33.45;17.30;;;;;;;;;;5094731;28;20031;-63
2021/11/10 06:43:59;;;;;;;29.85;17.13;;;;;;;;;;5096257;28;20032;-63
2021/11/10 06:46:25;;;;;;;33.53;17.48;;;;;;;;;;5096227;28;20030;-64
2021/11/10 06:48:51;;;;;;;33.88;18.83;;;;;;;;;;5094323;28;20032;-63
2021/11/10 06:51:17;;;;;;;34.55;18.65;;;;;;;;;;5096065;28;20388;-64
2021/11/10 06:53:45;;;;;;;32.17;18.45;;;;;;;;;;5094687;28;20107;-63
2021/11/10 06:56:12;;;;;;;31.17;17.77;;;;;;;;;;5096009;28;20514;-64
2021/11/10 06:58:38;;;;;;;35.40;19.00;;;;;;;;;;5095592;28;20104;-64
2021/11/10 07:01:04;;;;;;;37.03;19.85;;;;;;;;;;5094371;28;20020;-64
2021/11/10 07:03:30;;;;;;;36.22;19.60;;;;;;;;;;5095788;28;20024;-64
2021/11/10 07:05:56;;;;;;;33.00;18.58;;;;;;;;;;5095666;28;20476;-64
2021/11/10 07:08:22;;;;;;;35.85;17.63;;;;;;;;;;5095477;28;20030;-63
2021/11/10 07:10:48;;;;;;;28.77;18.23;;;;;;;;;;5095467;28;20131;-63
2021/11/10 07:13:14;;;;;;;36.38;18.02;;;;;;;;;;5094012;28;20043;-64
2021/11/10 07:15:40;;;;;;;33.65;19.23;;;;;;;;;;5095342;28;20028;-64
2021/11/10 07:18:06;;;;;;;40.65;20.13;;;;;;;;;;5095159;28;20054;-64
2021/11/10 07:20:32;;;;;;;32.25;19.73;;;;;;;;;;5095398;28;20016;-64
2021/11/10 07:22:59;;;;;;;35.65;20.90;;;;;;;;;;5095189;28;20507;-65
2021/11/10 07:25:26;;;;;;;36.67;21.00;;;;;;;;;;5094908;28;20012;-65
2021/11/10 07:27:52;;;;;;;39.15;20.83;;;;;;;;;;5095254;28;20559;-63
2021/11/10 07:30:18;;;;;;;51.83;22.63;;;;;;;;;;5093211;28;20027;-65
2021/11/10 07:32:44;;;;;;;45.08;23.98;;;;;;;;;;5094645;28;20024;-65
2021/11/10 07:35:11;;;;;;;42.00;23.60;;;;;;;;;;5095043;28;20047;-65
2021/11/10 07:37:37;;;;;;;49.13;24.95;;;;;;;;;;5093779;28;20095;-65
2021/11/10 07:40:05;;;;;;;44.53;24.65;;;;;;;;;;5094043;28;20097;-65
2021/11/10 07:42:32;;;;;;;39.28;22.92;;;;;;;;;;5093560;28;20069;-64
2021/11/10 07:45:07;;;;;;;42.20;22.92;;;;;;;;;;5094778;28;20012;-65
2021/11/10 07:47:40;;;;;;;39.72;22.77;;;;;;;;;;5095853;28;20047;-65
2021/11/10 07:50:06;;;;;;;38.17;22.20;;;;;;;;;;5093564;28;20369;-65
2021/11/10 07:52:38;;;;;;;39.28;21.52;;;;;;;;;;5095750;28;20373;-65
2021/11/10 07:55:04;;;;;;;42.28;22.65;;;;;;;;;;5093911;28;20047;-65
2021/11/10 07:57:30;;;;;;;31.80;19.48;;;;;;;;;;5093940;28;20050;-65
2021/11/10 07:59:56;;;;;;;37.22;18.40;;;;;;;;;;5093658;28;20421;-65
2021/11/10 08:02:22;;;;;;;31.65;16.17;;;;;;;;;;5094616;28;20500;-65
2021/11/10 08:04:48;;;;;;;30.90;15.68;;;;;;;;;;5094322;28;20531;-65
2021/11/10 08:07:14;;;;;;;26.27;15.77;;;;;;;;;;5094529;28;20028;-65
2021/11/10 08:09:40;;;;;;;28.77;14.45;;;;;;;;;;5094435;28;20057;-65
2021/11/10 08:12:06;;;;;;;24.25;14.32;;;;;;;;;;5094246;28;20032;-65
2021/11/10 08:14:32;;;;;;;25.45;15.13;;;;;;;;;;5094350;28;20032;-65
2021/11/10 08:16:59;;;;;;;24.77;13.88;;;;;;;;;;5096323;28;20059;-64
2021/11/10 08:19:25;;;;;;;21.60;13.60;;;;;;;;;;5076098;28;20046;-64
2021/11/10 08:21:52;;;;;;;20.83;13.50;;;;;;;;;;5095457;28;20415;-66
2021/11/10 08:24:17;;;;;;;22.92;14.98;;;5.10;99.90;;;;;;5093136;28;20028;-66
2021/11/10 08:26:43;;;;;;;23.38;14.40;;;5.20;99.90;;;;;;5094537;28;20053;-64
2021/11/10 08:29:08;;;;;;;26.48;13.63;;;5.50;99.90;;;;;;5091537;28;20028;-65
2021/11/10 08:31:34;;;;;;;24.77;13.65;;;5.50;99.90;;;;;;5093163;28;20082;-65
2021/11/10 08:34:00;;;;;;;20.73;13.50;;;5.50;99.90;;;;;;5092673;28;20034;-65
2021/11/10 08:36:26;;;;;;;21.73;13.38;;;5.10;99.90;;;;;;5093248;28;20115;-67
2021/11/10 08:38:54;;;;;;;23.80;13.57;;;5.10;99.90;;;;;;5047022;28;20047;-65
2021/11/10 08:41:21;;;;;;;22.30;13.63;;;5.20;99.90;;;;;;5091696;28;20019;-65
2021/11/10 08:43:48;;;;;;;17.33;11.45;;;5.50;99.90;;;;;;5092362;28;20055;-66
2021/11/10 08:46:14;;;;;;;23.38;12.43;;;5.60;99.90;;;;;;5089829;28;20028;-66
2021/11/10 08:48:41;;;;;;;23.08;13.63;;;5.40;99.90;;;;;;5093884;28;20419;-64
2021/11/10 08:51:07;;;;;;;24.45;12.85;;;5.50;99.90;;;;;;5092537;28;20073;-65
2021/11/10 08:53:34;;;;;;;18.63;12.27;;;5.60;99.90;;;;;;5092484;28;20485;-65
2021/11/10 08:56:03;;;;;;;18.83;12.50;;;5.50;99.90;;;;;;5093821;28;20016;-65
2021/11/10 08:58:29;;;;;;;21.02;12.50;;;5.50;99.90;;;;;;5092947;28;20036;-66
2021/11/10 09:00:55;;;;;;;19.00;11.45;;;5.90;99.90;;;;;;5091864;28;20016;-65
2021/11/10 09:03:22;;;;;;;20.38;11.75;;;6.30;99.90;;;;;;5091775;28;20020;-65
2021/11/10 09:05:49;;;;;;;22.58;11.60;;;6.80;99.90;;;;;;5092426;28;20023;-65
2021/11/10 09:08:15;;;;;;;15.70;11.25;;;7.00;99.90;;;;;;5075193;28;20105;-65
2021/11/10 09:10:41;;;;;;;17.27;11.20;;;7.00;99.90;;;;;;5093362;28;20024;-65
2021/11/10 09:13:07;;;;;;;18.27;11.43;;;7.20;99.90;;;;;;5093146;28;20035;-67
2021/11/10 09:15:33;;;;;;;23.70;11.32;;;7.60;99.90;;;;;;5050548;28;20037;-65
2021/11/10 09:18:01;;;;;;;14.32;10.40;;;7.90;99.90;;;;;;5073314;28;20408;-65
2021/11/10 09:20:28;;;;;;;24.80;10.98;;;8.20;99.90;;;;;;5082326;28;20087;-64
2021/11/10 09:22:55;;;;;;;17.27;10.38;;;8.30;99.90;;;;;;5092065;28;20032;-66
2021/11/10 09:25:22;;;;;;;18.13;11.00;;;8.30;99.90;;;;;;5093158;28;20089;-65
2021/11/10 09:27:49;;;;;;;17.42;10.15;;;8.10;99.90;;;;;;5093354;28;20031;-65
2021/11/10 09:30:18;;;;;;;17.70;11.50;;;8.00;99.90;;;;;;5092795;28;20069;-65
2021/11/10 09:32:46;;;;;;;21.85;11.63;;;7.80;99.90;;;;;;5093343;28;20016;-65
2021/11/10 09:35:13;;;;;;;20.27;11.80;;;7.50;99.90;;;;;;5092894;28;20012;-65
2021/11/10 09:37:39;;;;;;;26.02;15.35;;;7.20;99.90;;;;;;5092915;28;20023;-65
2021/11/10 09:40:08;;;;;;;27.42;13.73;;;7.30;99.90;;;;;;5092564;28;20020;-66
2021/11/10 09:42:36;;;;;;;21.15;11.65;;;7.60;99.90;;;;;;5097038;28;20174;-66
2021/11/10 09:45:04;;;;;;;18.30;11.52;;;7.70;99.90;;;;;;5097056;28;20016;-65
2021/11/10 09:47:30;;;;;;;18.65;11.00;;;7.60;99.90;;;;;;5096818;28;20107;-65
2021/11/10 09:49:56;;;;;;;19.55;13.10;;;8.10;99.90;;;;;;5096751;28;20077;-65
2021/11/10 09:52:21;;;;;;;16.33;12.35;;;9.30;99.90;;;;;;5096651;28;20024;-65
2021/11/10 09:54:47;;;;;;;16.42;12.07;;;9.90;99.90;;;;;;5096803;28;20427;-66
2021/11/10 09:57:13;;;;;;;23.15;16.42;;;10.30;99.90;;;;;;5096951;28;20528;-65
2021/11/10 09:59:39;;;;;;;26.05;15.38;;;10.30;99.90;;;;;;5095079;28;20044;-66
2021/11/10 10:02:11;;;;;;;25.08;13.65;;;11.10;99.90;;;;;;5097119;28;20078;-65
2021/11/10 10:04:42;;;;;;;18.30;12.75;;;10.60;99.90;;;;;;5096810;28;20107;-65
2021/11/10 10:07:10;;;;;;;17.83;10.40;;;10.50;99.90;;;;;;5097020;28;20020;-65
2021/11/10 10:09:37;;;;;;;17.70;10.82;;;10.90;99.90;;;;;;5095224;28;20032;-65
2021/11/10 10:12:04;;;;;;;16.98;10.25;;;11.40;99.90;;;;;;5096493;28;20444;-67
2021/11/10 10:14:32;;;;;;;12.10;8.73;;;11.70;99.90;;;;;;5096779;28;20024;-66
2021/11/10 10:17:00;;;;;;;17.13;10.25;;;12.20;99.90;;;;;;5096633;28;20366;-65
2021/11/10 10:19:38;;;;;;;14.93;8.80;;;12.60;99.90;;;;;;5096712;28;20402;-67
2021/11/10 10:22:03;;;;;;;18.27;8.80;;;12.90;99.90;;;;;;5096535;28;20028;-66
2021/11/10 10:24:46;;;;;;;16.70;9.05;;;13.40;99.90;;;;;;5096098;28;20032;-66
2021/11/10 10:27:33;;;;;;;15.23;9.63;;;13.70;99.90;;;;;;5095373;28;20012;-65
2021/11/10 10:30:24;;;;;;;26.98;15.30;;;13.00;99.90;;;;;;5095421;28;20092;-66
2021/11/10 10:32:55;;;;;;;22.52;11.07;;;12.50;99.90;;;;;;5095643;28;20035;-66
2021/11/10 10:35:43;;;;;;;15.95;10.27;;;12.90;99.90;;;;;;5095235;28;20031;-66
2021/11/10 10:38:12;;;;;;;20.02;9.52;;;12.60;99.90;;;;;;5075396;28;20107;-66
2021/11/10 10:40:40;;;;;;;17.92;10.00;;;12.70;99.90;;;;;;5075457;28;20385;-66
2021/11/10 10:43:06;;;;;;;24.67;10.48;;;12.20;99.90;;;;;;5089170;28;20047;-66
2021/11/10 10:45:39;;;;;;;18.40;10.75;;;12.20;99.90;;;;;;5095801;28;20024;-66
2021/11/10 10:48:07;;;;;;;15.30;10.32;;;12.30;99.90;;;;;;5095852;28;20031;-65
2021/11/10 10:50:37;;;;;;;19.90;11.25;;;12.00;99.90;;;;;;5095483;28;20024;-66
2021/11/10 10:53:02;;;;;;;22.20;11.57;;;11.50;99.90;;;;;;5095349;28;20023;-66
2021/11/10 10:55:31;;;;;;;17.83;11.15;;;11.20;99.90;;;;;;5095619;28;20028;-65
2021/11/10 10:57:58;;;;;;;19.17;11.43;;;11.10;99.90;;;;;;5095396;28;20028;-67
2021/11/10 11:00:29;;;;;;;20.92;11.82;;;11.40;99.90;;;;;;5095367;28;20027;-65
2021/11/10 11:02:56;;;;;;;20.58;11.77;;;11.70;99.90;;;;;;5094593;28;20051;-65
2021/11/10 11:05:38;;;;;;;20.73;11.35;;;11.70;99.90;;;;;;5093964;28;20119;-66
2021/11/10 11:08:32;;;;;;;29.65;12.63;;;11.70;99.90;;;;;;5095485;28;20044;-65
2021/11/10 11:10:58;;;;;;;17.95;10.38;;;11.70;99.90;;;;;;5103944;28;20023;-66
2021/11/10 11:13:47;;;;;;;17.27;10.43;;;11.40;99.90;;;;;;5115429;28;20068;-65
2021/11/10 11:16:17;;;;;;;18.55;10.15;;;11.30;99.90;;;;;;5096686;28;20020;-65
2021/11/10 11:18:43;;;;;;;19.02;10.02;;;11.30;99.90;;;;;;5093405;28;20028;-65
2021/11/10 11:21:26;;;;;;;45.35;21.13;;;11.10;99.90;;;;;;5093120;28;20027;-65
2021/11/10 11:23:54;;;;;;;24.92;12.25;;;10.80;99.90;;;;;;5093265;28;20531;-65
2021/11/10 11:26:38;;;;;;;26.08;11.65;;;10.70;99.90;;;;;;5094602;28;20029;-66
2021/11/10 11:29:21;;;;;;;21.67;10.63;;;10.70;99.90;;;;;;5093440;28;20446;-65
2021/11/10 11:31:47;;;;;;;19.90;10.13;;;10.60;99.90;;;;;;5092088;28;20123;-65
2021/11/10 11:34:13;;;;;;;21.85;11.15;;;10.80;99.90;;;;;;5095041;28;20057;-65
2021/11/10 11:36:49;;;;;;;20.98;11.20;;;10.60;99.90;;;;;;5095133;28;20028;-64
2021/11/10 11:39:15;;;;;;;24.17;10.43;;;10.50;99.90;;;;;;5094808;28;20024;-66
2021/11/10 11:41:40;;;;;;;19.83;10.85;;;10.70;99.90;;;;;;5093998;28;20089;-66
2021/11/10 11:44:06;;;;;;;18.40;10.18;;;10.90;99.90;;;;;;5094085;28;20039;-65
2021/11/10 11:46:33;;;;;;;17.10;10.25;;;11.10;99.90;;;;;;5094374;28;20028;-65
2021/11/10 11:49:00;;;;;;;28.95;11.77;;;11.00;99.90;;;;;;5094424;28;20020;-65
2021/11/10 11:51:26;;;;;;;19.88;10.32;;;11.00;99.90;;;;;;5093026;28;20024;-65
2021/11/10 11:53:52;;;;;;;22.67;10.50;;;11.00;99.90;;;;;;5075811;28;20026;-66
2021/11/10 11:56:19;;;;;;;20.48;10.68;;;10.90;99.90;;;;;;5094448;28;20020;-66
2021/11/10 11:58:50;;;;;;;17.35;10.27;;;10.90;99.90;;;;;;5095877;28;20044;-65
2021/11/10 12:01:21;;;;;;;21.35;10.07;;;10.90;99.90;;;;;;5107717;28;20098;-66
2021/11/10 12:03:58;;;;;;;23.30;10.50;;;10.90;99.90;;;;;;5104775;28;20107;-67
2021/11/10 12:06:25;;;;;;;22.45;10.35;;;10.80;99.90;;;;;;5094197;28;20039;-66
2021/11/10 12:08:53;;;;;;;23.08;11.48;;;10.60;99.90;;;;;;5092720;28;20043;-66
2021/11/10 12:17:12;;;;;;;22.63;11.23;;;10.60;99.90;;;;;;5071148;28;20912;-64
2021/11/10 12:19:57;;;;;;;20.67;11.57;;;10.50;99.90;;;;;;5070728;28;20048;-65
2021/11/10 12:22:24;;;;;;;23.13;11.95;;;10.60;99.90;;;;;;5052740;28;20021;-66
2021/11/10 12:24:58;;;;;;;21.33;11.50;;;10.50;99.90;;;;;;5052568;28;20107;-66
2021/11/10 12:27:39;;;;;;;24.38;11.60;;;10.50;99.90;;;;;;5070663;28;20023;-66
2021/11/10 12:30:12;;;;;;;24.48;11.60;;;10.40;99.90;;;;;;5070546;28;20016;-66
2021/11/10 12:32:43;;;;;;;25.70;11.90;;;10.30;99.90;;;;;;5068570;28;20354;-65
2021/11/10 12:35:19;;;;;;;26.67;12.30;;;10.40;99.90;;;;;;5069879;28;20048;-65
2021/11/10 12:37:49;;;;;;;25.50;12.00;;;10.40;99.90;;;;;;5068531;28;20025;-67
2021/11/10 12:40:21;;;;;;;24.67;12.52;;;10.40;99.90;;;;;;5069118;28;20025;-66
2021/11/10 12:42:51;;;;;;;21.42;12.13;;;10.40;99.90;;;;;;5068689;28;20025;-65
2021/11/10 12:45:22;;;;;;;24.60;11.93;;;10.50;99.90;;;;;;5069419;28;20039;-65
2021/11/10 12:47:49;;;;;;;28.35;11.88;;;10.50;99.90;;;;;;5069997;28;20029;-65
2021/11/10 12:50:22;;;;;;;23.77;11.57;;;10.40;99.90;;;;;;5067960;28;20032;-65
2021/11/10 12:52:49;;;;;;;23.75;11.90;;;10.40;99.90;;;;;;5070033;28;20025;-65
2021/11/10 12:55:20;;;;;;;22.42;12.32;;;10.40;99.90;;;;;;5069068;28;20021;-64
2021/11/10 12:57:46;;;;;;;21.77;11.85;;;10.40;99.90;;;;;;5069255;28;20052;-66
2021/11/10 13:00:15;;;;;;;21.05;12.30;;;10.40;99.90;;;;;;5070217;28;20120;-64
2021/11/10 13:02:41;;;;;;;25.35;12.98;;;10.30;99.90;;;;;;5069248;28;20028;-64
2021/11/10 13:05:09;;;;;;;24.40;12.95;;;10.40;99.90;;;;;;5069916;28;20021;-64
2021/11/10 13:07:37;;;;;;;26.65;12.75;;;10.40;99.90;;;;;;5069518;28;20151;-66
2021/11/10 13:10:08;;;;;;;30.08;13.40;;;10.50;99.90;;;;;;5069225;28;20017;-64
2021/11/10 13:12:34;;;;;;;26.58;13.88;;;10.70;99.90;;;;;;5069995;28;20082;-66
2021/11/10 13:15:03;;;;;;;28.40;13.85;;;10.90;99.90;;;;;;5069238;28;20059;-64
2021/11/10 13:17:30;;;;;;;26.25;13.52;;;11.10;99.90;;;;;;5070205;28;20095;-65
2021/11/10 13:19:59;;;;;;;22.88;12.52;;;11.20;99.90;;;;;;5069419;28;20020;-64
2021/11/10 13:25:11;;;;;;;27.23;12.73;;;11.20;99.90;;;;;;5070348;28;20365;-65
2021/11/10 13:27:42;;;;;;;26.25;12.70;;;11.10;99.90;;;;;;5066308;28;20052;-66
2021/11/10 13:30:24;;;;;;;27.25;12.23;;;11.20;99.90;;;;;;5067468;28;20024;-66
2021/11/10 13:32:49;;;;;;;21.05;12.20;;;11.40;99.90;;;;;;5067367;28;20048;-66
2021/11/10 13:35:16;;;;;;;23.48;12.48;;;11.40;99.90;;;;;;5069538;28;20044;-66
2021/11/10 13:37:45;;;;;;;26.98;13.27;;;11.40;99.90;;;;;;5069676;28;20025;-66
2021/11/10 13:40:13;;;;;;;31.20;12.25;;;11.30;99.90;;;;;;5069949;28;20112;-66
2021/11/10 13:42:41;;;;;;;32.58;12.80;;;11.30;99.90;;;;;;5069628;28;20478;-66